KGCC/GCC METAR and TAF weather

Enter ICAO airport designator
Station Type Date Time Source
KGCC METAR 2021/09/19 13:53 UTC NOAA

KGCC 191353Z AUTO 20018G24KT 10SM CLR 19/06 A2977 RMK AO2 PK WND 21026/1329 SLP030 T01890056


Station Type Date Time Source
KGCC Decoded METAR 2021/09/19 13:53 UTC NOAA

GILLETTE-CAMPBELL CTY AIRPORT , WY, United States (KGCC) 44-20N 105-33W 1320M
Sep 19, 2021 - 09:53 AM EDT / 2021.09.19 1353 UTC
Wind: from the SSW (200 degrees) at 21 MPH (18 KT) gusting to 28 MPH (24 KT):0
Visibility: 10 mile(s):0
Sky conditions: clear
Temperature: 66.0 F (18.9 C)
Dew Point: 42.1 F (5.6 C)
Relative Humidity: 41%
Pressure (altimeter): 29.77 in. Hg (1008 hPa)
ob: KGCC 191353Z AUTO 20018G24KT 10SM CLR 19/06 A2977 RMK AO2 PK WND 21026/1329 SLP030 T01890056
cycle: 14

Station Type Date Time Source
KGCC TAF 2021/09/19 12:22 UTC NOAA

TAF KGCC 191120Z 1912/2012 22017G24KT P6SM SCT150
FM191700 29019G26KT P6SM SCT120
FM192300 34011G24KT P6SM -SHRA OVC060
FM200300 35010KT P6SM -SHRA BKN040

Example: see airport list